createdAt,value
2018-04-10T00:00:36.300Z,19.53
2018-04-10T00:03:02.140Z,19.51
2018-04-10T00:05:27.973Z,19.51
2018-04-10T00:07:53.825Z,19.50
2018-04-10T00:10:19.632Z,19.52
2018-04-10T00:12:45.456Z,19.56
2018-04-10T00:15:11.262Z,19.49
2018-04-10T00:17:37.073Z,19.48
2018-04-10T00:20:02.880Z,19.52
2018-04-10T00:22:28.693Z,19.60
2018-04-10T00:24:54.532Z,19.55
2018-04-10T00:27:20.336Z,19.51
2018-04-10T00:29:46.149Z,19.48
2018-04-10T00:32:11.990Z,19.53
2018-04-10T00:34:37.823Z,19.51
2018-04-10T00:37:03.667Z,19.47
2018-04-10T00:39:29.481Z,19.48
2018-04-10T00:41:55.292Z,19.51
2018-04-10T00:44:21.117Z,19.45
2018-04-10T00:46:46.928Z,19.46
2018-04-10T00:49:12.733Z,19.53
2018-04-10T00:51:38.549Z,19.51
2018-04-10T00:54:04.361Z,19.55
2018-04-10T00:56:30.185Z,19.47
2018-04-10T00:58:56.015Z,19.40
2018-04-10T01:01:21.829Z,19.38
2018-04-10T01:03:47.640Z,19.52
2018-04-10T01:06:13.448Z,19.42
2018-04-10T01:08:39.274Z,19.43
2018-04-10T01:11:05.100Z,19.47
2018-04-10T01:13:30.912Z,19.47
2018-04-10T01:15:56.720Z,19.49
2018-04-10T01:18:22.532Z,19.51
2018-04-10T01:20:48.336Z,19.49
2018-04-10T01:23:14.144Z,19.46
2018-04-10T01:25:39.960Z,19.52
2018-04-10T01:28:05.763Z,19.58
2018-04-10T01:30:31.564Z,19.55
2018-04-10T01:32:57.373Z,19.44
2018-04-10T01:35:23.211Z,19.47
2018-04-10T01:37:49.024Z,19.38
2018-04-10T01:40:14.856Z,19.49
2018-04-10T01:42:40.661Z,19.41
2018-04-10T01:45:06.520Z,19.54
2018-04-10T01:47:32.328Z,19.53
2018-04-10T01:49:58.183Z,19.63
2018-04-10T01:52:23.988Z,19.48
2018-04-10T01:54:49.792Z,19.58
2018-04-10T01:57:15.600Z,19.64
2018-04-10T01:59:41.420Z,19.49
2018-04-10T02:02:07.228Z,19.58
2018-04-10T02:04:33.063Z,19.55
2018-04-10T02:06:58.888Z,19.63
2018-04-10T02:09:24.744Z,19.62
2018-04-10T02:11:50.581Z,19.55
2018-04-10T02:14:16.436Z,19.50
2018-04-10T02:16:42.260Z,19.57
2018-04-10T02:19:08.273Z,19.58
2018-04-10T02:21:34.085Z,19.61
2018-04-10T02:23:59.924Z,19.58
2018-04-10T02:26:25.776Z,19.48
2018-04-10T02:28:51.584Z,19.48
2018-04-10T02:31:17.384Z,19.48
2018-04-10T02:33:43.233Z,19.51
2018-04-10T02:36:09.070Z,19.48
2018-04-10T02:38:34.915Z,19.44
2018-04-10T02:41:00.731Z,19.47
2018-04-10T02:43:26.548Z,19.30
2018-04-10T02:45:52.365Z,19.43
2018-04-10T02:48:18.178Z,19.49
2018-04-10T02:50:43.984Z,19.44
2018-04-10T02:53:09.824Z,19.42
2018-04-10T02:55:35.632Z,19.52
2018-04-10T02:58:01.450Z,19.45
2018-04-10T03:00:27.264Z,19.45
2018-04-10T03:02:53.073Z,19.57
2018-04-10T03:05:18.896Z,19.50
2018-04-10T03:07:44.699Z,19.35
2018-04-10T03:10:10.536Z,19.43
2018-04-10T03:12:36.340Z,19.49
2018-04-10T03:15:02.172Z,19.42
2018-04-10T03:17:27.978Z,19.44
2018-04-10T03:19:53.826Z,19.45
2018-04-10T03:22:19.627Z,19.40
2018-04-10T03:24:45.436Z,19.47
2018-04-10T03:27:11.461Z,19.37
2018-04-10T03:29:37.284Z,19.47
2018-04-10T03:32:03.100Z,19.39
2018-04-10T03:34:28.931Z,19.32
2018-04-10T03:36:54.745Z,19.32
2018-04-10T03:39:20.565Z,19.32
2018-04-10T03:41:46.477Z,19.36
2018-04-10T03:44:12.292Z,19.41
2018-04-10T03:46:38.104Z,19.39
2018-04-10T03:49:03.916Z,19.38
2018-04-10T03:51:29.723Z,19.39
2018-04-10T03:53:55.528Z,19.44
2018-04-10T03:56:21.332Z,19.37
2018-04-10T03:58:47.135Z,19.33
2018-04-10T04:01:12.944Z,19.35
2018-04-10T04:03:38.753Z,19.35
2018-04-10T04:06:04.561Z,19.46
2018-04-10T04:08:30.371Z,19.41
2018-04-10T04:10:56.180Z,19.39
2018-04-10T04:13:21.992Z,19.34
2018-04-10T04:15:47.799Z,19.34
2018-04-10T04:18:19.716Z,19.34
2018-04-10T04:20:51.665Z,19.38
2018-04-10T04:23:17.468Z,19.23
2018-04-10T04:25:43.275Z,19.35
2018-04-10T04:28:09.081Z,19.36
2018-04-10T04:30:34.924Z,19.34
2018-04-10T04:33:00.731Z,19.36
2018-04-10T04:35:26.553Z,19.37
2018-04-10T04:37:52.364Z,19.28
2018-04-10T04:40:18.168Z,19.35
2018-04-10T04:42:43.998Z,19.38
2018-04-10T04:45:09.804Z,19.57
2018-04-10T04:47:35.616Z,19.48
2018-04-10T04:50:01.481Z,19.49
2018-04-10T04:52:33.619Z,19.51
2018-04-10T04:54:59.724Z,19.46
2018-04-10T04:57:25.639Z,19.53
2018-04-10T04:59:51.568Z,19.49
2018-04-10T05:02:17.418Z,19.37
2018-04-10T05:04:43.283Z,19.43
2018-04-10T05:07:09.104Z,19.42
2018-04-10T05:09:34.954Z,19.44
2018-04-10T05:12:00.949Z,19.35
2018-04-10T05:14:26.760Z,19.49
2018-04-10T05:16:52.572Z,19.43
2018-04-10T05:19:18.380Z,19.34
2018-04-10T05:21:44.208Z,19.40
2018-04-10T05:24:10.017Z,19.35
2018-04-10T05:26:35.827Z,19.39
2018-04-10T05:29:01.639Z,19.25
2018-04-10T05:31:27.480Z,19.35
2018-04-10T05:33:53.324Z,19.30
2018-04-10T05:36:19.187Z,19.31
2018-04-10T05:38:44.993Z,19.43
2018-04-10T05:41:10.848Z,19.37
2018-04-10T05:43:36.665Z,19.33
2018-04-10T05:46:02.489Z,19.37
2018-04-10T05:48:28.312Z,19.29
2018-04-10T05:50:54.123Z,19.36
2018-04-10T05:53:19.964Z,19.30
2018-04-10T05:55:45.780Z,19.43
2018-04-10T05:58:11.622Z,19.33
2018-04-10T06:00:37.434Z,19.45
2018-04-10T06:03:03.268Z,19.28
2018-04-10T06:05:29.092Z,19.26
2018-04-10T06:07:54.961Z,19.43
2018-04-10T06:10:20.773Z,19.44
2018-04-10T06:12:46.644Z,19.47
2018-04-10T06:15:12.456Z,19.40
2018-04-10T06:17:38.364Z,19.45
2018-04-10T06:20:04.993Z,19.49
2018-04-10T06:22:30.816Z,19.53
2018-04-10T06:24:57.768Z,19.50
2018-04-10T06:27:23.685Z,19.38
2018-04-10T06:29:49.496Z,19.34
2018-04-10T06:32:15.318Z,19.54
2018-04-10T06:34:41.144Z,19.54
2018-04-10T06:37:06.955Z,19.59
2018-04-10T06:39:32.780Z,19.49
2018-04-10T06:41:58.589Z,19.64
2018-04-10T06:44:24.438Z,19.58
2018-04-10T06:46:50.267Z,19.59
2018-04-10T06:49:16.080Z,19.58
2018-04-10T06:51:41.888Z,19.64
2018-04-10T06:54:07.725Z,19.71
2018-04-10T06:56:33.545Z,19.62
2018-04-10T06:58:59.401Z,19.72
2018-04-10T07:01:25.265Z,19.78
2018-04-10T07:03:51.077Z,19.87
2018-04-10T07:06:16.899Z,19.97
2018-04-10T07:08:42.709Z,20.05
2018-04-10T07:11:08.552Z,20.11
2018-04-10T07:13:34.364Z,20.08
2018-04-10T07:16:00.180Z,20.16
2018-04-10T07:18:25.989Z,20.09
2018-04-10T07:20:51.874Z,20.06
2018-04-10T07:23:18.688Z,20.06
2018-04-10T07:25:44.559Z,20.04
2018-04-10T07:28:10.377Z,20.00
2018-04-10T07:30:36.192Z,19.99
2018-04-10T07:33:02.006Z,19.97
2018-04-10T07:35:27.813Z,19.99
2018-04-10T07:37:53.626Z,19.98
2018-04-10T07:40:19.441Z,19.94
2018-04-10T07:42:45.264Z,19.95
2018-04-10T07:45:11.079Z,19.92
2018-04-10T07:47:36.949Z,19.96
2018-04-10T07:50:02.789Z,19.93
2018-04-10T07:52:28.591Z,19.95
2018-04-10T07:54:54.396Z,19.96
2018-04-10T07:57:20.208Z,19.97
2018-04-10T07:59:46.016Z,19.97
2018-04-10T08:02:11.841Z,20.00
2018-04-10T08:04:37.656Z,20.01
2018-04-10T08:07:03.476Z,19.95
2018-04-10T08:09:29.312Z,19.88
2018-04-10T08:11:55.121Z,19.99
2018-04-10T08:14:20.927Z,19.93
2018-04-10T08:16:46.732Z,19.93
2018-04-10T08:19:12.536Z,19.89
2018-04-10T08:21:38.344Z,19.91
2018-04-10T08:24:04.176Z,19.92
2018-04-10T08:26:30.007Z,19.85
2018-04-10T08:28:55.873Z,19.88
2018-04-10T08:31:21.678Z,19.97
2018-04-10T08:33:47.493Z,19.89
2018-04-10T08:36:13.318Z,19.93
2018-04-10T08:38:39.156Z,19.91
2018-04-10T08:41:04.957Z,19.96
2018-04-10T08:43:30.764Z,19.96
2018-04-10T08:45:56.607Z,19.95
2018-04-10T08:48:22.414Z,19.97
2018-04-10T08:50:48.288Z,19.94
2018-04-10T08:53:14.105Z,19.93
2018-04-10T08:55:39.949Z,19.91
2018-04-10T08:58:05.761Z,19.93
2018-04-10T09:00:31.606Z,19.98
2018-04-10T09:02:57.443Z,19.93
2018-04-10T09:05:23.244Z,19.97
2018-04-10T09:07:49.083Z,19.91
2018-04-10T09:10:14.886Z,19.86
2018-04-10T09:12:40.743Z,19.92
2018-04-10T09:15:06.545Z,19.92
2018-04-10T09:17:32.384Z,19.94
2018-04-10T09:19:58.184Z,19.91
2018-04-10T09:22:24.025Z,19.95
2018-04-10T09:24:49.829Z,19.87
2018-04-10T09:27:15.672Z,19.92
2018-04-10T09:29:41.508Z,19.92
2018-04-10T09:32:07.316Z,19.93
2018-04-10T09:34:33.160Z,19.86
2018-04-10T09:36:58.966Z,19.92
2018-04-10T09:39:24.829Z,19.95
2018-04-10T09:41:50.633Z,19.91
2018-04-10T09:44:16.468Z,19.88
2018-04-10T09:46:42.276Z,19.91
2018-04-10T09:49:08.108Z,19.92
2018-04-10T09:51:34.862Z,19.91
2018-04-10T09:54:00.669Z,19.89
2018-04-10T09:56:26.473Z,19.96
2018-04-10T09:58:52.275Z,19.91
2018-04-10T10:01:18.120Z,19.91
2018-04-10T10:03:44.716Z,19.91
2018-04-10T10:06:10.688Z,19.88
2018-04-10T10:08:37.322Z,19.92
2018-04-10T10:11:03.163Z,19.90
2018-04-10T10:13:28.984Z,19.90
2018-04-10T10:15:54.812Z,19.89
2018-04-10T10:18:20.613Z,19.88
2018-04-10T10:20:46.412Z,19.89
2018-04-10T10:23:12.212Z,19.85
2018-04-10T10:25:38.016Z,19.92
2018-04-10T10:28:03.886Z,19.92
2018-04-10T10:30:29.701Z,19.88
2018-04-10T10:32:55.540Z,19.90
2018-04-10T10:35:21.372Z,19.87
2018-04-10T10:37:47.213Z,19.85
2018-04-10T10:42:45.445Z,19.88
2018-04-10T10:45:11.273Z,19.87
2018-04-10T10:47:37.113Z,19.89
2018-04-10T10:50:02.936Z,19.91
2018-04-10T10:52:28.776Z,19.88
2018-04-10T10:54:54.585Z,19.90
2018-04-10T10:57:20.391Z,19.89
2018-04-10T10:59:46.201Z,19.86
2018-04-10T11:02:12.012Z,19.88
2018-04-10T11:04:37.820Z,19.87
2018-04-10T11:07:03.661Z,19.83
2018-04-10T11:09:29.495Z,19.82
2018-04-10T11:11:55.297Z,19.79
2018-04-10T11:14:21.157Z,19.80
2018-04-10T11:16:46.959Z,19.78
2018-04-10T11:19:12.760Z,19.78
2018-04-10T11:21:38.560Z,19.76
2018-04-10T11:24:04.392Z,19.72
2018-04-10T11:26:30.216Z,19.77
2018-04-10T11:28:56.020Z,19.75
2018-04-10T11:31:21.840Z,19.73
2018-04-10T11:33:47.648Z,19.75
2018-04-10T11:36:13.465Z,19.77
2018-04-10T11:38:39.272Z,19.77
2018-04-10T11:41:05.085Z,19.77
2018-04-10T11:43:30.908Z,19.76
2018-04-10T11:45:56.720Z,19.76
2018-04-10T11:48:22.532Z,19.73
2018-04-10T11:50:48.340Z,19.76
2018-04-10T11:53:14.161Z,19.75
2018-04-10T11:55:40.005Z,19.71
2018-04-10T11:58:05.808Z,19.73
2018-04-10T12:00:31.640Z,19.78
2018-04-10T12:02:57.444Z,19.75
2018-04-10T12:05:23.249Z,19.78
2018-04-10T12:07:49.052Z,19.70
2018-04-10T12:10:14.880Z,19.72
2018-04-10T12:12:40.689Z,19.78
2018-04-10T12:15:06.512Z,19.71
2018-04-10T12:17:32.328Z,19.76
2018-04-10T12:19:58.138Z,19.75
2018-04-10T12:22:23.948Z,19.81
2018-04-10T12:24:49.748Z,19.81
2018-04-10T12:27:15.583Z,19.80
2018-04-10T12:29:41.428Z,19.80
2018-04-10T12:32:07.287Z,19.81
2018-04-10T12:34:33.108Z,19.80
2018-04-10T12:36:58.962Z,19.80
2018-04-10T12:39:24.806Z,19.82
2018-04-10T12:41:50.652Z,19.81
2018-04-10T12:44:16.462Z,19.84
2018-04-10T12:46:42.340Z,19.83
2018-04-10T12:49:08.153Z,19.82
2018-04-10T12:51:33.972Z,19.84
2018-04-10T12:53:59.776Z,19.82
2018-04-10T12:56:25.600Z,19.83
2018-04-10T12:58:51.411Z,19.84
2018-04-10T13:01:17.212Z,19.82
2018-04-10T13:03:43.024Z,19.80
2018-04-10T13:06:08.828Z,19.78
2018-04-10T13:08:34.688Z,19.84
2018-04-10T13:11:00.528Z,19.82
2018-04-10T13:13:26.332Z,19.82
2018-04-10T13:15:52.148Z,19.85
2018-04-10T13:18:17.953Z,19.80
2018-04-10T13:20:43.758Z,19.84
2018-04-10T13:23:09.569Z,19.81
2018-04-10T13:25:35.417Z,19.79
2018-04-10T13:28:01.244Z,19.82
2018-04-10T13:30:27.097Z,19.84
2018-04-10T13:32:52.974Z,19.81
2018-04-10T13:35:18.816Z,19.80
2018-04-10T13:37:44.725Z,19.76
2018-04-10T13:40:10.524Z,19.76
2018-04-10T13:42:36.453Z,19.76
2018-04-10T13:45:03.228Z,19.81
2018-04-10T13:47:29.036Z,19.79
2018-04-10T13:49:54.868Z,19.82
2018-04-10T13:52:20.694Z,19.80
2018-04-10T13:54:46.500Z,19.85
2018-04-10T13:57:12.305Z,19.84
2018-04-10T13:59:38.152Z,19.83
2018-04-10T14:02:04.004Z,19.85
2018-04-10T14:04:30.676Z,19.80
2018-04-10T14:06:56.492Z,19.85
2018-04-10T14:09:22.301Z,19.84
2018-04-10T14:11:48.179Z,19.86
2018-04-10T14:14:14.649Z,19.88
2018-04-10T14:16:40.460Z,19.86
2018-04-10T14:19:06.265Z,19.85
2018-04-10T14:21:32.100Z,19.87
2018-04-10T14:23:57.940Z,19.83
2018-04-10T14:26:23.796Z,19.83
2018-04-10T14:28:49.668Z,19.83
2018-04-10T14:31:15.592Z,19.85
2018-04-10T14:33:41.517Z,19.82
2018-04-10T14:36:07.369Z,19.82
2018-04-10T14:38:33.181Z,19.85
2018-04-10T14:40:59.025Z,19.80
2018-04-10T14:43:24.824Z,19.84
2018-04-10T14:45:50.628Z,19.83
2018-04-10T14:48:20.037Z,19.87
2018-04-10T14:50:45.869Z,19.84
2018-04-10T14:53:11.712Z,19.83
2018-04-10T14:55:37.532Z,19.85
2018-04-10T14:58:03.356Z,19.83
2018-04-10T15:00:29.162Z,19.81
2018-04-10T15:02:55.110Z,19.85
2018-04-10T15:05:20.940Z,19.86
2018-04-10T15:07:46.944Z,19.83
2018-04-10T15:10:12.756Z,19.79
2018-04-10T15:12:38.566Z,19.82
2018-04-10T15:15:04.456Z,19.83
2018-04-10T15:17:30.272Z,19.82
2018-04-10T15:19:56.125Z,19.86
2018-04-10T15:22:28.680Z,19.84
2018-04-10T15:24:54.526Z,19.76
2018-04-10T15:27:29.257Z,19.81
2018-04-10T15:30:05.617Z,19.82
2018-04-10T15:32:31.708Z,19.84
2018-04-10T15:34:57.548Z,19.82
2018-04-10T15:37:23.353Z,19.80
2018-04-10T15:39:49.157Z,19.76
2018-04-10T15:42:14.972Z,19.77
2018-04-10T15:44:40.954Z,19.79
2018-04-10T15:47:06.813Z,19.79
2018-04-10T15:49:32.604Z,19.79
2018-04-10T15:51:58.448Z,19.77
2018-04-10T15:54:24.288Z,19.76
2018-04-10T15:56:50.129Z,19.75
2018-04-10T15:59:15.949Z,19.76
2018-04-10T16:01:41.764Z,19.77
2018-04-10T16:04:07.577Z,19.82
2018-04-10T16:06:33.396Z,19.78
2018-04-10T16:08:59.213Z,19.80
2018-04-10T16:11:25.033Z,19.84
2018-04-10T16:13:50.873Z,19.88
2018-04-10T16:16:16.696Z,19.90
2018-04-10T16:18:42.521Z,19.85
2018-04-10T16:21:08.340Z,19.87
2018-04-10T16:23:34.157Z,19.89
2018-04-10T16:25:59.968Z,19.86
2018-04-10T16:28:25.780Z,19.88
2018-04-10T16:30:51.612Z,19.86
2018-04-10T16:33:17.419Z,19.90
2018-04-10T16:35:43.259Z,19.89
2018-04-10T16:38:09.072Z,19.86
2018-04-10T16:40:34.911Z,19.90
2018-04-10T16:43:00.714Z,19.89
2018-04-10T16:45:26.560Z,19.88
2018-04-10T16:47:52.372Z,19.85
2018-04-10T16:50:18.185Z,19.91
2018-04-10T16:52:44.985Z,19.88
2018-04-10T16:55:10.805Z,19.89
2018-04-10T16:57:36.653Z,19.82
2018-04-10T17:02:47.677Z,19.85
2018-04-10T17:05:13.524Z,19.84
2018-04-10T17:07:39.371Z,19.83
2018-04-10T17:10:05.204Z,19.84
2018-04-10T17:12:31.903Z,19.84
2018-04-10T17:14:57.716Z,19.86
2018-04-10T17:17:23.533Z,19.82
2018-04-10T17:19:49.364Z,19.86
2018-04-10T17:22:15.209Z,19.85
2018-04-10T17:24:41.081Z,19.80
2018-04-10T17:27:06.934Z,19.82
2018-04-10T17:29:32.772Z,19.80
2018-04-10T17:31:58.612Z,19.83
2018-04-10T17:34:24.463Z,19.85
2018-04-10T17:36:50.304Z,19.83
2018-04-10T17:39:16.132Z,19.83
2018-04-10T17:41:41.949Z,19.79
2018-04-10T17:44:07.770Z,19.78
2018-04-10T17:46:33.861Z,19.79
2018-04-10T17:48:59.680Z,19.76
2018-04-10T17:51:25.532Z,19.77
2018-04-10T17:53:51.378Z,19.74
2018-04-10T17:56:17.193Z,19.74
2018-04-10T17:58:43.028Z,19.82
2018-04-10T18:01:08.872Z,19.87
2018-04-10T18:03:34.717Z,20.00
2018-04-10T18:06:00.536Z,20.11
2018-04-10T18:08:26.659Z,20.20
2018-04-10T18:10:52.477Z,20.31
2018-04-10T18:13:18.447Z,20.38
2018-04-10T18:15:44.269Z,20.37
2018-04-10T18:18:10.178Z,20.45
2018-04-10T18:20:37.957Z,20.52
2018-04-10T18:23:04.221Z,20.47
2018-04-10T18:25:30.109Z,20.47
2018-04-10T18:27:56.035Z,20.50
2018-04-10T18:30:21.854Z,20.44
2018-04-10T18:32:47.673Z,20.46
2018-04-10T18:35:13.489Z,20.45
2018-04-10T18:37:39.321Z,20.46
2018-04-10T18:40:05.137Z,20.37
2018-04-10T18:42:31.189Z,20.35
2018-04-10T18:44:57.031Z,20.29
2018-04-10T18:47:22.867Z,20.29
2018-04-10T18:49:48.796Z,20.26
2018-04-10T18:52:14.627Z,20.25
2018-04-10T18:54:40.453Z,20.25
2018-04-10T18:57:06.315Z,20.27
2018-04-10T18:59:32.249Z,20.28
2018-04-10T19:01:58.086Z,20.17
2018-04-10T19:04:24.025Z,20.21
2018-04-10T19:06:50.082Z,20.19
2018-04-10T19:09:15.901Z,20.17
2018-04-10T19:11:41.761Z,20.16
2018-04-10T19:14:07.638Z,20.14
2018-04-10T19:16:33.490Z,20.13
2018-04-10T19:18:59.307Z,20.09
2018-04-10T19:21:25.139Z,20.12
2018-04-10T19:23:50.969Z,20.01
2018-04-10T19:26:16.907Z,20.12
2018-04-10T19:28:42.746Z,20.02
2018-04-10T19:31:08.577Z,20.14
2018-04-10T19:33:35.411Z,20.13
2018-04-10T19:36:01.243Z,20.12
2018-04-10T19:38:27.129Z,20.14
2018-04-10T19:40:52.969Z,20.10
2018-04-10T19:43:18.831Z,20.08
2018-04-10T19:45:44.648Z,20.05
2018-04-10T19:48:10.485Z,20.04
2018-04-10T19:50:36.336Z,20.02
2018-04-10T19:53:03.117Z,20.02
2018-04-10T19:55:28.938Z,20.01
2018-04-10T19:57:54.756Z,20.02
2018-04-10T20:00:20.568Z,20.01
2018-04-10T20:02:46.545Z,19.96
2018-04-10T20:05:12.614Z,20.04
2018-04-10T20:07:38.828Z,20.05
2018-04-10T20:10:04.834Z,20.04
2018-04-10T20:12:30.661Z,20.02
2018-04-10T20:14:56.505Z,20.00
2018-04-10T20:17:22.394Z,20.01
2018-04-10T20:19:48.225Z,20.03
2018-04-10T20:22:14.042Z,20.02
2018-04-10T20:24:39.873Z,20.02
2018-04-10T20:27:05.717Z,20.00
2018-04-10T20:29:31.567Z,20.02
2018-04-10T20:31:57.421Z,20.01
2018-04-10T20:34:23.278Z,19.97
2018-04-10T20:36:49.096Z,20.00
2018-04-10T20:39:14.986Z,19.98
2018-04-10T20:41:40.924Z,20.02
2018-04-10T20:44:06.745Z,20.00
2018-04-10T20:46:32.600Z,20.04
2018-04-10T20:48:58.439Z,20.00
2018-04-10T20:51:24.392Z,20.06
2018-04-10T20:53:50.332Z,20.07
2018-04-10T20:56:16.181Z,20.07
2018-04-10T20:58:42.140Z,20.09
2018-04-10T21:01:08.073Z,20.07
2018-04-10T21:03:33.884Z,20.05
2018-04-10T21:05:59.730Z,20.08
2018-04-10T21:08:25.600Z,20.04
2018-04-10T21:10:51.558Z,20.07
2018-04-10T21:13:17.381Z,20.04
2018-04-10T21:15:43.205Z,20.07
2018-04-10T21:18:09.021Z,20.01
2018-04-10T21:20:34.841Z,20.05
2018-04-10T21:23:01.484Z,20.00
2018-04-10T21:25:27.305Z,20.03
2018-04-10T21:27:53.152Z,20.06
2018-04-10T21:30:18.977Z,19.95
2018-04-10T21:32:44.800Z,20.02
2018-04-10T21:35:10.620Z,20.04
2018-04-10T21:37:36.485Z,20.07
2018-04-10T21:40:02.310Z,20.10
2018-04-10T21:42:28.260Z,20.10
2018-04-10T21:44:54.092Z,20.06
2018-04-10T21:47:21.007Z,20.09
2018-04-10T21:49:46.849Z,20.10
2018-04-10T21:52:12.669Z,20.07
2018-04-10T21:54:38.669Z,20.05
2018-04-10T21:57:04.488Z,20.08
2018-04-10T21:59:30.313Z,20.05
2018-04-10T22:01:56.136Z,20.07
2018-04-10T22:04:21.952Z,20.06
2018-04-10T22:06:47.872Z,20.05
2018-04-10T22:09:13.689Z,19.99
2018-04-10T22:11:39.504Z,20.00
2018-04-10T22:14:05.370Z,20.04
2018-04-10T22:16:31.188Z,20.01
2018-04-10T22:18:57.008Z,20.05
2018-04-10T22:21:22.828Z,20.04
2018-04-10T22:23:48.667Z,20.07
2018-04-10T22:26:14.494Z,20.13
2018-04-10T22:28:40.352Z,20.06
2018-04-10T22:31:06.176Z,20.09
2018-04-10T22:33:32.781Z,20.09
2018-04-10T22:35:58.606Z,20.11
2018-04-10T22:38:24.425Z,20.05
2018-04-10T22:40:50.236Z,20.10
2018-04-10T22:43:16.053Z,20.13
2018-04-10T22:45:41.894Z,20.11
2018-04-10T22:48:07.757Z,20.07
2018-04-10T22:50:33.576Z,20.05
2018-04-10T22:52:59.389Z,20.09
2018-04-10T22:55:25.225Z,20.11
2018-04-10T22:57:51.036Z,20.09
2018-04-10T23:00:22.824Z,20.08
2018-04-10T23:02:48.757Z,20.08
2018-04-10T23:05:14.604Z,20.06
2018-04-10T23:07:40.420Z,20.07
2018-04-10T23:10:13.171Z,20.07
2018-04-10T23:12:39.022Z,20.08
2018-04-10T23:15:04.865Z,20.07
2018-04-10T23:17:30.689Z,20.10
2018-04-10T23:19:56.516Z,20.13
2018-04-10T23:22:22.403Z,20.11
2018-04-10T23:24:48.238Z,20.15
2018-04-10T23:27:14.105Z,20.13
2018-04-10T23:29:39.926Z,20.11
2018-04-10T23:32:05.737Z,20.13
2018-04-10T23:34:31.608Z,20.13
2018-04-10T23:36:57.546Z,20.13
2018-04-10T23:39:23.360Z,20.11
2018-04-10T23:41:49.178Z,20.09
2018-04-10T23:44:15.012Z,20.12
2018-04-10T23:46:40.825Z,20.17
2018-04-10T23:49:06.638Z,20.28
2018-04-10T23:51:32.485Z,20.41
2018-04-10T23:53:58.295Z,20.42
2018-04-10T23:56:24.108Z,20.46
2018-04-10T23:58:50.161Z,20.43
